createdAt,value
2022-12-26T00:01:31.397Z,91.09
2022-12-26T00:03:57.949Z,90.57
2022-12-26T00:06:24.413Z,90.49
2022-12-26T00:08:50.753Z,90.49
2022-12-26T00:11:17.062Z,90.49
2022-12-26T00:13:43.389Z,90.66
2022-12-26T00:16:09.805Z,90.64
2022-12-26T00:18:36.185Z,90.36
2022-12-26T00:21:02.498Z,89.93
2022-12-26T00:23:28.836Z,89.82
2022-12-26T00:25:55.147Z,89.55
2022-12-26T00:28:21.460Z,89.47
2022-12-26T00:30:47.763Z,89.68
2022-12-26T00:33:14.111Z,89.82
2022-12-26T00:35:40.434Z,89.88
2022-12-26T00:38:07.936Z,89.71
2022-12-26T00:40:34.255Z,89.61
2022-12-26T00:43:00.568Z,89.76
2022-12-26T00:45:26.967Z,90.00
2022-12-26T00:47:53.287Z,90.28
2022-12-26T00:50:19.617Z,90.24
2022-12-26T00:52:45.963Z,90.10
2022-12-26T00:55:12.328Z,89.98
2022-12-26T00:57:38.669Z,90.15
2022-12-26T01:00:04.972Z,90.22
2022-12-26T01:02:42.518Z,90.63
2022-12-26T01:05:09.007Z,90.52
2022-12-26T01:08:21.776Z,90.73
2022-12-26T01:10:22.848Z,90.77
2022-12-26T01:12:49.153Z,90.92
2022-12-26T01:15:15.485Z,90.91
2022-12-26T01:17:41.805Z,90.67
2022-12-26T01:20:08.123Z,90.82
2022-12-26T01:22:34.508Z,90.98
2022-12-26T01:25:00.833Z,91.43
2022-12-26T01:27:27.427Z,91.22
2022-12-26T01:29:54.396Z,91.09
2022-12-26T01:32:20.762Z,90.96
2022-12-26T01:34:47.175Z,90.83
2022-12-26T01:37:13.526Z,90.72
2022-12-26T01:39:39.829Z,90.76
2022-12-26T01:42:06.162Z,90.79
2022-12-26T01:44:32.475Z,90.84
2022-12-26T01:46:58.785Z,90.72
2022-12-26T01:49:25.101Z,90.80
2022-12-26T01:51:51.408Z,91.00
2022-12-26T01:54:39.529Z,90.75
2022-12-26T01:57:04.118Z,90.68
2022-12-26T01:59:30.495Z,90.06
2022-12-26T02:01:56.979Z,90.15
2022-12-26T02:04:42.338Z,90.15
2022-12-26T02:07:08.708Z,90.39
2022-12-26T02:09:35.013Z,90.45
2022-12-26T02:12:36.265Z,90.60
2022-12-26T02:14:47.606Z,90.50
2022-12-26T02:17:13.920Z,90.18
2022-12-26T02:19:40.226Z,90.09
2022-12-26T02:22:06.551Z,89.91
2022-12-26T02:24:32.861Z,90.32
2022-12-26T02:26:59.203Z,90.41
2022-12-26T02:29:25.507Z,89.94
2022-12-26T02:31:51.905Z,89.53
2022-12-26T02:34:18.226Z,89.47
2022-12-26T02:36:44.555Z,88.75
2022-12-26T02:39:43.253Z,90.07
2022-12-26T02:41:57.174Z,90.23
2022-12-26T02:44:42.451Z,90.19
2022-12-26T02:47:08.771Z,90.12
2022-12-26T02:49:55.206Z,89.69
2022-12-26T02:52:40.079Z,89.28
2022-12-26T02:55:25.176Z,89.19
2022-12-26T02:58:10.035Z,88.96
2022-12-26T03:00:55.896Z,88.76
2022-12-26T03:03:40.867Z,88.82
2022-12-26T03:06:25.843Z,88.63
2022-12-26T03:09:10.932Z,88.65
2022-12-26T03:11:55.979Z,88.09
2022-12-26T03:14:22.355Z,88.52
2022-12-26T03:17:07.684Z,88.68
2022-12-26T03:19:34.115Z,88.55
2022-12-26T03:22:00.459Z,88.82
2022-12-26T03:24:46.749Z,89.22
2022-12-26T03:27:13.085Z,89.14
2022-12-26T03:29:58.141Z,89.02
2022-12-26T03:32:24.454Z,88.86
2022-12-26T03:34:50.757Z,88.58
2022-12-26T03:37:17.069Z,88.24
2022-12-26T03:40:02.329Z,88.80
2022-12-26T03:42:47.334Z,88.34
2022-12-26T03:45:32.217Z,88.36
2022-12-26T03:48:17.287Z,88.27
2022-12-26T03:51:02.171Z,88.05
2022-12-26T03:53:47.072Z,87.64
2022-12-26T03:56:32.957Z,87.82
2022-12-26T03:59:18.206Z,87.88
2022-12-26T04:02:03.789Z,87.82
2022-12-26T04:04:49.063Z,88.10
2022-12-26T04:07:33.992Z,88.40
2022-12-26T04:10:18.752Z,88.12
2022-12-26T04:13:03.829Z,88.04
2022-12-26T04:15:48.686Z,87.69
2022-12-26T04:18:33.854Z,88.16
2022-12-26T04:21:00.210Z,87.66
2022-12-26T04:23:45.482Z,87.88
2022-12-26T04:26:30.428Z,88.22
2022-12-26T04:29:15.300Z,88.41
2022-12-26T04:32:00.216Z,88.16
2022-12-26T04:34:45.088Z,87.67
2022-12-26T04:37:30.061Z,87.33
2022-12-26T04:40:15.303Z,88.20
2022-12-26T04:43:00.307Z,87.88
2022-12-26T04:45:26.605Z,88.33
2022-12-26T04:48:11.821Z,88.37
2022-12-26T04:50:38.125Z,88.19
2022-12-26T04:53:04.483Z,88.20
2022-12-26T04:55:30.822Z,88.40
2022-12-26T04:57:57.146Z,88.36
2022-12-26T05:00:25.125Z,87.57
2022-12-26T05:03:14.570Z,87.05
2022-12-26T05:06:03.062Z,86.92
2022-12-26T05:08:48.261Z,84.85
2022-12-26T05:11:14.700Z,82.95
2022-12-26T05:13:41.004Z,82.31
2022-12-26T05:16:29.341Z,82.15
2022-12-26T05:19:14.534Z,81.87
2022-12-26T05:22:03.303Z,79.59
2022-12-26T05:24:48.228Z,78.81
2022-12-26T05:27:33.595Z,77.72
2022-12-26T05:30:00.014Z,76.92
2022-12-26T05:32:45.366Z,78.24
2022-12-26T05:35:11.732Z,77.52
2022-12-26T05:37:38.052Z,78.25
2022-12-26T05:40:04.365Z,77.72
2022-12-26T05:42:30.681Z,76.62
2022-12-26T05:44:57.264Z,77.13
2022-12-26T05:47:23.609Z,76.34
2022-12-26T05:49:49.993Z,77.13
2022-12-26T05:52:16.303Z,76.18
2022-12-26T05:54:42.607Z,75.73
2022-12-26T05:57:08.917Z,74.90
2022-12-26T05:59:35.259Z,75.64
2022-12-26T06:02:05.364Z,76.43
2022-12-26T06:04:33.789Z,76.60
2022-12-26T06:07:00.161Z,76.98
2022-12-26T06:09:26.468Z,76.08
2022-12-26T06:14:24.270Z,76.67
2022-12-26T06:19:22.250Z,76.03
2022-12-26T06:21:48.610Z,75.56
2022-12-26T06:24:14.941Z,76.62
2022-12-26T06:26:41.517Z,76.57
2022-12-26T06:29:07.850Z,76.80
2022-12-26T06:31:34.475Z,76.78
2022-12-26T06:34:02.147Z,77.22
2022-12-26T06:36:28.651Z,77.26
2022-12-26T06:38:54.999Z,76.48
2022-12-26T06:41:21.338Z,76.49
2022-12-26T06:43:47.706Z,76.78
2022-12-26T06:46:14.078Z,77.24
2022-12-26T06:51:12.250Z,76.28
2022-12-26T06:56:10.245Z,77.46
2022-12-26T07:01:08.326Z,75.87
2022-12-26T07:03:34.778Z,76.37
2022-12-26T07:06:01.103Z,77.17
2022-12-26T07:08:27.617Z,77.69
2022-12-26T07:10:53.908Z,76.62
2022-12-26T07:13:20.216Z,77.15
2022-12-26T07:15:46.527Z,77.36
2022-12-26T07:20:44.245Z,76.75
2022-12-26T07:23:10.554Z,76.81
2022-12-26T07:25:36.952Z,77.74
2022-12-26T07:28:03.284Z,77.37
2022-12-26T07:30:29.613Z,76.93
2022-12-26T07:32:56.275Z,77.88
2022-12-26T07:35:22.617Z,77.89
2022-12-26T07:37:48.931Z,78.53
2022-12-26T07:40:15.246Z,78.65
2022-12-26T07:42:41.548Z,79.35
2022-12-26T07:45:07.896Z,79.80
2022-12-26T07:47:34.392Z,81.46
2022-12-26T07:52:32.302Z,81.32
2022-12-26T07:54:58.636Z,80.80
2022-12-26T08:00:11.545Z,80.06
2022-12-26T08:02:38.038Z,79.74
2022-12-26T08:05:04.419Z,79.51
2022-12-26T08:07:30.721Z,78.88
2022-12-26T08:09:58.564Z,79.14
2022-12-26T08:12:26.876Z,79.08
2022-12-26T08:14:53.197Z,78.99
2022-12-26T08:19:51.313Z,78.54
2022-12-26T08:22:17.628Z,78.83
2022-12-26T08:27:16.147Z,78.08
2022-12-26T08:29:42.449Z,77.80
2022-12-26T08:32:08.845Z,76.37
2022-12-26T08:34:35.229Z,74.92
2022-12-26T08:37:01.532Z,75.21
2022-12-26T08:39:27.856Z,74.58
2022-12-26T08:41:54.195Z,74.43
2022-12-26T08:44:28.445Z,73.49
2022-12-26T08:46:59.209Z,73.75
2022-12-26T08:49:25.520Z,72.94
2022-12-26T08:54:23.241Z,72.40
2022-12-26T08:56:49.552Z,71.35
2022-12-26T08:59:16.046Z,70.96
2022-12-26T09:01:42.485Z,71.87
2022-12-26T09:06:40.354Z,71.62
2022-12-26T09:09:07.945Z,71.49
2022-12-26T09:11:34.287Z,70.56
2022-12-26T09:14:00.601Z,70.72
2022-12-26T09:16:29.551Z,70.60
2022-12-26T09:21:29.208Z,70.64
2022-12-26T09:23:55.553Z,70.22
2022-12-26T09:28:53.183Z,70.59
2022-12-26T09:31:19.509Z,69.95
2022-12-26T09:33:47.290Z,68.82
2022-12-26T09:36:15.111Z,67.62
2022-12-26T09:38:41.668Z,67.16
2022-12-26T09:41:07.986Z,67.55
2022-12-26T09:43:34.356Z,67.45
2022-12-26T09:46:06.085Z,68.07
2022-12-26T09:48:32.625Z,66.78
2022-12-26T09:50:58.974Z,67.89
2022-12-26T09:53:25.288Z,67.34
2022-12-26T09:55:51.630Z,67.95
2022-12-26T09:58:17.927Z,67.39
2022-12-26T10:00:44.373Z,68.16
2022-12-26T10:03:10.705Z,68.51
2022-12-26T10:05:37.020Z,67.64
2022-12-26T10:15:39.319Z,69.19
2022-12-26T10:18:05.665Z,69.54
2022-12-26T10:20:32.059Z,70.14
2022-12-26T10:23:00.137Z,68.91
2022-12-26T10:25:33.467Z,69.43
2022-12-26T10:28:00.199Z,70.95
2022-12-26T10:30:27.602Z,71.31
2022-12-26T10:32:57.150Z,73.41
2022-12-26T10:35:23.532Z,72.38
2022-12-26T10:37:51.455Z,72.19
2022-12-26T10:40:17.825Z,72.11
2022-12-26T10:42:44.152Z,71.56
2022-12-26T10:45:10.871Z,72.52
2022-12-26T10:47:37.811Z,71.95
2022-12-26T10:50:04.137Z,71.05
2022-12-26T10:52:30.450Z,71.37
2022-12-26T10:57:28.249Z,71.29
2022-12-26T10:59:54.593Z,70.69
2022-12-26T11:02:21.016Z,71.78
2022-12-26T11:05:13.074Z,70.99
2022-12-26T11:10:05.213Z,70.27
2022-12-26T11:12:31.576Z,69.80
2022-12-26T11:14:57.921Z,69.39
2022-12-26T11:19:56.165Z,69.15
2022-12-26T11:22:22.802Z,69.31
2022-12-26T11:24:49.118Z,69.11
2022-12-26T11:27:15.436Z,69.04
2022-12-26T11:29:42.689Z,68.68
2022-12-26T11:32:08.988Z,69.46
2022-12-26T11:37:07.180Z,67.92
2022-12-26T11:39:33.526Z,68.01
2022-12-26T11:41:59.883Z,66.56
2022-12-26T11:44:26.264Z,67.38
2022-12-26T11:46:52.719Z,67.38
2022-12-26T11:49:19.085Z,66.82
2022-12-26T11:51:45.391Z,67.00
2022-12-26T11:54:12.182Z,67.50
2022-12-26T11:56:38.492Z,67.36
2022-12-26T12:01:36.193Z,68.24
2022-12-26T12:04:02.580Z,68.18
2022-12-26T12:06:28.915Z,67.73
2022-12-26T12:09:02.271Z,68.88
2022-12-26T12:11:31.790Z,68.30
2022-12-26T12:13:58.781Z,68.18
2022-12-26T12:16:25.108Z,69.15
2022-12-26T12:18:51.499Z,68.96
2022-12-26T12:21:17.847Z,69.28
2022-12-26T12:23:44.212Z,69.60
2022-12-26T12:26:10.573Z,70.02
2022-12-26T12:28:36.948Z,70.41
2022-12-26T12:31:03.339Z,71.19
2022-12-26T12:33:29.723Z,69.77
2022-12-26T12:35:56.074Z,70.66
2022-12-26T12:38:22.447Z,70.04
2022-12-26T12:40:48.765Z,70.58
2022-12-26T12:43:15.160Z,70.21
2022-12-26T12:45:41.555Z,70.46
2022-12-26T12:48:07.913Z,70.41
2022-12-26T12:50:34.506Z,70.95
2022-12-26T12:53:00.831Z,70.29
2022-12-26T12:55:31.239Z,71.23
2022-12-26T12:57:57.615Z,71.39
2022-12-26T13:00:24.150Z,71.03
2022-12-26T13:02:52.305Z,70.72
2022-12-26T13:05:18.750Z,71.71
2022-12-26T13:07:47.443Z,70.65
2022-12-26T13:10:13.990Z,71.17
2022-12-26T13:12:40.361Z,71.93
2022-12-26T13:15:06.766Z,77.84
2022-12-26T13:17:33.160Z,85.51
2022-12-26T13:20:02.327Z,89.47
2022-12-26T13:22:29.244Z,93.77
2022-12-26T13:24:55.559Z,95.79
2022-12-26T13:27:21.867Z,97.90
2022-12-26T13:29:48.843Z,97.82
2022-12-26T13:32:15.202Z,99.63
2022-12-26T13:34:41.508Z,98.84
2022-12-26T13:39:39.198Z,98.17
2022-12-26T13:44:56.137Z,95.78
2022-12-26T13:47:22.451Z,95.49
2022-12-26T13:52:20.203Z,95.74
2022-12-26T13:54:46.515Z,95.84
2022-12-26T13:57:16.145Z,95.77
2022-12-26T13:59:42.442Z,96.75
2022-12-26T14:02:11.124Z,96.63
2022-12-26T14:04:41.039Z,96.29
2022-12-26T14:07:07.382Z,96.94
2022-12-26T14:09:33.690Z,97.48
2022-12-26T14:12:00.050Z,96.54
2022-12-26T14:16:59.211Z,98.90
2022-12-26T14:19:25.609Z,96.41
2022-12-26T14:21:54.093Z,96.18
2022-12-26T14:24:20.398Z,97.49
2022-12-26T14:26:50.101Z,98.28
2022-12-26T14:29:16.416Z,98.75
2022-12-26T14:31:42.721Z,100.00
2022-12-26T14:34:10.836Z,98.04
2022-12-26T14:36:37.334Z,98.44
2022-12-26T14:41:54.148Z,97.79
2022-12-26T14:44:20.452Z,100.00
2022-12-26T14:46:47.007Z,100.00
2022-12-26T14:49:13.314Z,100.00
2022-12-26T14:51:39.761Z,100.00
2022-12-26T14:54:06.091Z,100.00
2022-12-26T14:56:32.426Z,100.00
2022-12-26T14:58:58.742Z,100.00
2022-12-26T15:01:25.108Z,100.00
2022-12-26T15:03:51.524Z,100.00
2022-12-26T15:06:17.835Z,98.33
2022-12-26T15:08:46.127Z,96.35
2022-12-26T15:11:12.446Z,97.83
2022-12-26T15:13:42.073Z,94.16
2022-12-26T15:16:08.479Z,92.87
2022-12-26T15:21:06.827Z,93.30
2022-12-26T15:23:33.182Z,93.15
2022-12-26T15:26:03.127Z,92.94
2022-12-26T15:28:29.429Z,93.27
2022-12-26T15:30:55.791Z,92.56
2022-12-26T15:33:22.118Z,91.59
2022-12-26T15:35:48.505Z,92.00
2022-12-26T15:38:14.813Z,89.31
2022-12-26T15:40:41.124Z,90.02
2022-12-26T15:43:07.458Z,92.19
2022-12-26T15:45:33.767Z,92.55
2022-12-26T15:48:00.100Z,94.52
2022-12-26T15:50:26.447Z,96.21
2022-12-26T15:52:52.991Z,94.51
2022-12-26T15:55:19.289Z,96.49
2022-12-26T15:57:45.610Z,97.64
2022-12-26T16:00:13.111Z,97.17
2022-12-26T16:02:39.690Z,98.37
2022-12-26T16:05:06.089Z,98.20
2022-12-26T16:07:32.404Z,96.85
2022-12-26T16:09:58.746Z,96.84
2022-12-26T16:17:29.127Z,94.22
2022-12-26T16:19:55.436Z,94.26
2022-12-26T16:22:40.661Z,95.00
2022-12-26T16:25:06.970Z,94.86
2022-12-26T16:27:33.288Z,94.17
2022-12-26T16:29:59.677Z,94.22
2022-12-26T16:32:26.029Z,94.78
2022-12-26T16:34:52.401Z,94.92
2022-12-26T16:37:19.348Z,95.13
2022-12-26T16:39:45.666Z,94.69
2022-12-26T16:42:11.965Z,95.23
2022-12-26T16:44:38.336Z,95.58
2022-12-26T16:47:04.792Z,95.53
2022-12-26T16:49:32.230Z,95.64
2022-12-26T16:51:58.556Z,95.73
2022-12-26T16:54:24.855Z,96.31
2022-12-26T16:56:51.259Z,96.88
2022-12-26T16:59:18.141Z,96.57
2022-12-26T17:01:48.141Z,96.82
2022-12-26T17:04:14.597Z,97.27
2022-12-26T17:06:40.999Z,97.03
2022-12-26T17:09:07.335Z,96.36
2022-12-26T17:11:33.666Z,96.72
2022-12-26T17:14:00.221Z,95.96
2022-12-26T17:16:26.586Z,95.54
2022-12-26T17:18:52.967Z,95.91
2022-12-26T17:21:22.705Z,94.86
2022-12-26T17:23:49.025Z,94.69
2022-12-26T17:26:15.400Z,94.83
2022-12-26T17:28:41.722Z,95.30
2022-12-26T17:31:08.069Z,94.82
2022-12-26T17:33:34.425Z,94.11
2022-12-26T17:38:48.491Z,94.26
2022-12-26T17:41:14.881Z,94.39
2022-12-26T17:43:41.245Z,93.77
2022-12-26T17:46:07.644Z,93.14
2022-12-26T17:48:33.977Z,93.48
2022-12-26T17:51:00.314Z,93.11
2022-12-26T17:53:30.134Z,92.97
2022-12-26T17:55:56.479Z,93.77
2022-12-26T17:58:23.296Z,93.69
2022-12-26T18:03:21.131Z,92.91
2022-12-26T18:05:47.575Z,92.23
2022-12-26T18:10:45.083Z,91.49
2022-12-26T18:13:11.403Z,92.61
2022-12-26T18:15:37.770Z,91.20
2022-12-26T18:18:04.772Z,90.46
2022-12-26T18:20:31.084Z,90.30
2022-12-26T18:22:57.460Z,90.58
2022-12-26T18:25:23.789Z,91.48
2022-12-26T18:27:50.126Z,91.83
2022-12-26T18:30:16.939Z,91.85
2022-12-26T18:32:43.267Z,90.07
2022-12-26T18:35:10.180Z,89.31
2022-12-26T18:37:36.558Z,88.92
2022-12-26T18:40:02.864Z,89.46
2022-12-26T18:45:01.058Z,87.54
2022-12-26T18:47:27.368Z,87.62
2022-12-26T18:49:53.785Z,87.45
2022-12-26T18:52:20.097Z,88.42
2022-12-26T18:54:46.442Z,87.20
2022-12-26T18:57:12.941Z,86.94
2022-12-26T18:59:39.296Z,86.28
2022-12-26T19:04:38.026Z,85.89
2022-12-26T19:07:04.348Z,85.79
2022-12-26T19:09:30.879Z,84.92
2022-12-26T19:11:58.888Z,84.58
2022-12-26T19:14:25.186Z,84.81
2022-12-26T19:16:51.548Z,84.54
2022-12-26T19:19:17.885Z,85.29
2022-12-26T19:21:44.188Z,84.15
2022-12-26T19:24:10.492Z,84.18
2022-12-26T19:26:36.832Z,84.09
2022-12-26T19:29:03.179Z,83.25
2022-12-26T19:31:30.111Z,82.92
2022-12-26T19:33:56.431Z,81.93
2022-12-26T19:36:22.737Z,82.66
2022-12-26T19:38:49.039Z,81.81
2022-12-26T19:41:15.416Z,81.58
2022-12-26T19:43:41.986Z,81.74
2022-12-26T19:48:42.051Z,81.05
2022-12-26T19:51:08.371Z,81.72
2022-12-26T19:53:34.674Z,81.14
2022-12-26T19:56:01.002Z,81.18
2022-12-26T19:58:27.323Z,81.64
2022-12-26T20:00:53.680Z,80.88
2022-12-26T20:03:22.087Z,80.94
2022-12-26T20:05:48.407Z,81.35
2022-12-26T20:08:14.830Z,81.51
2022-12-26T20:10:41.129Z,80.47
2022-12-26T20:13:07.470Z,80.59
2022-12-26T20:15:33.924Z,81.04
2022-12-26T20:18:00.437Z,80.68
2022-12-26T20:20:27.024Z,81.33
2022-12-26T20:22:53.499Z,81.93
2022-12-26T20:25:19.846Z,80.63
2022-12-26T20:27:50.025Z,84.58
2022-12-26T20:30:16.344Z,91.11
2022-12-26T20:32:46.837Z,98.05
2022-12-26T20:35:13.161Z,100.00
2022-12-26T20:37:39.561Z,100.00
2022-12-26T20:40:05.890Z,100.00
2022-12-26T20:42:32.192Z,100.00
2022-12-26T20:44:58.514Z,100.00
2022-12-26T20:47:24.832Z,100.00
2022-12-26T20:52:23.020Z,100.00
2022-12-26T20:57:21.023Z,100.00
2022-12-26T20:59:47.331Z,100.00
2022-12-26T21:02:13.810Z,100.00
2022-12-26T21:04:40.248Z,100.00
2022-12-26T21:07:10.020Z,100.00
2022-12-26T21:09:40.943Z,100.00
2022-12-26T21:12:12.067Z,100.00
2022-12-26T21:14:38.375Z,100.00
2022-12-26T21:17:04.765Z,100.00
2022-12-26T21:19:31.087Z,100.00
2022-12-26T21:21:57.411Z,100.00
2022-12-26T21:24:23.769Z,100.00
2022-12-26T21:29:22.020Z,100.00
2022-12-26T21:31:48.343Z,100.00
2022-12-26T21:37:04.910Z,100.00
2022-12-26T21:39:31.284Z,100.00
2022-12-26T21:42:00.964Z,100.00
2022-12-26T21:44:27.283Z,100.00
2022-12-26T21:46:53.612Z,100.00
2022-12-26T21:49:21.125Z,100.00
2022-12-26T21:51:47.446Z,100.00
2022-12-26T21:54:32.654Z,100.00
2022-12-26T21:56:58.988Z,100.00
2022-12-26T22:02:34.879Z,100.00
2022-12-26T22:05:01.334Z,100.00
2022-12-26T22:07:27.687Z,100.00
2022-12-26T22:09:54.002Z,100.00
2022-12-26T22:12:39.295Z,100.00
2022-12-26T22:15:05.584Z,100.00
2022-12-26T22:20:06.955Z,100.00
2022-12-26T22:22:33.331Z,98.22
2022-12-26T22:24:59.697Z,99.08
2022-12-26T22:27:26.005Z,98.31
2022-12-26T22:29:52.967Z,99.84
2022-12-26T22:32:19.294Z,99.42
2022-12-26T22:34:45.691Z,99.08
2022-12-26T22:37:11.998Z,100.00
2022-12-26T22:39:38.358Z,100.00
2022-12-26T22:42:04.658Z,100.00
2022-12-26T22:44:34.978Z,100.00
2022-12-26T22:47:01.328Z,100.00
2022-12-26T22:51:59.676Z,100.00
2022-12-26T22:54:25.984Z,100.00
2022-12-26T22:56:52.311Z,100.00
2022-12-26T23:01:50.054Z,100.00
2022-12-26T23:04:16.461Z,100.00
2022-12-26T23:06:42.853Z,100.00
2022-12-26T23:09:09.169Z,100.00
2022-12-26T23:14:07.031Z,100.00
2022-12-26T23:16:33.463Z,100.00
2022-12-26T23:19:18.618Z,100.00
2022-12-26T23:21:45.116Z,100.00
2022-12-26T23:24:11.963Z,100.00
2022-12-26T23:26:38.264Z,100.00
2022-12-26T23:29:23.438Z,100.00
2022-12-26T23:31:49.766Z,100.00
2022-12-26T23:34:16.945Z,100.00
2022-12-26T23:36:43.253Z,100.00
2022-12-26T23:39:09.675Z,100.00
2022-12-26T23:41:35.970Z,100.00
2022-12-26T23:44:02.283Z,99.05
2022-12-26T23:46:28.755Z,97.76
2022-12-26T23:48:55.105Z,99.06
2022-12-26T23:51:21.424Z,98.62
2022-12-26T23:53:47.745Z,98.63
2022-12-26T23:56:14.057Z,98.05
2022-12-26T23:58:40.402Z,98.66
